Time;durP1;ratioP1;P1;durP2;ratioP2;P2;SDS_P1;SDS_P2;PMS_P1;PMS_P2;Temp;Humidity;BMP_temperature;BMP_pressure;BME280_temperature;BME280_humidity;BME280_pressure;Samples;Min_cycle;Max_cycle;Signal;HPM_P1;HPM_P2
2021/08/29 00:00:21;;;;;;;;;;;18.60;37.90;;;;;;4343933;33;20480;-38
2021/08/29 00:02:47;;;;;;;;;;;18.50;37.90;;;;;;4345319;32;20443;-37
2021/08/29 00:05:13;;;;;;;;;;;18.50;37.90;;;;;;4343648;33;19972;-37
2021/08/29 00:07:40;;;;;;;;;;;18.40;37.90;;;;;;4345651;32;20039;-38
2021/08/29 00:10:06;;;;;;;;;;;18.40;38.00;;;;;;4345007;32;20052;-37
2021/08/29 00:12:32;;;;;;;;;;;18.40;38.10;;;;;;4345097;32;20041;-37
2021/08/29 00:14:58;;;;;;;;;;;18.40;38.20;;;;;;4345361;33;20450;-38
2021/08/29 00:17:25;;;;;;;;;;;18.30;38.20;;;;;;4345154;32;19962;-38
2021/08/29 00:19:51;;;;;;;;;;;18.30;38.20;;;;;;4347697;32;20063;-38
2021/08/29 00:22:17;;;;;;;;;;;18.30;38.30;;;;;;4360616;32;20440;-38
2021/08/29 00:24:43;;;;;;;;;;;18.30;38.30;;;;;;4374770;32;19969;-38
2021/08/29 00:27:09;;;;;;;;;;;18.20;38.30;;;;;;4374886;32;19990;-38
2021/08/29 00:29:37;;;;;;;;;;;18.30;38.30;;;;;;4374949;32;19981;-38
2021/08/29 00:32:03;;;;;;;;;;;18.30;38.30;;;;;;4374397;32;20046;-38
2021/08/29 00:34:30;;;;;;;;;;;18.30;38.30;;;;;;4374332;32;20591;-38
2021/08/29 00:36:56;;;;;;;;;;;18.30;38.20;;;;;;4374764;32;19980;-38
2021/08/29 00:39:22;;;;;;;;;;;18.30;38.20;;;;;;4374798;32;20093;-38
2021/08/29 00:41:48;;;;;;;;;;;18.40;38.20;;;;;;4374755;32;20183;-38
2021/08/29 00:44:14;;;;;;;;;;;18.40;38.10;;;;;;4374663;32;20378;-38
2021/08/29 00:46:42;;;;;;;;;;;18.40;37.90;;;;;;4327358;33;19982;-38
2021/08/29 00:49:11;;;;;;;;;;;18.40;37.90;;;;;;4327378;33;20049;-39
2021/08/29 00:51:37;;;;;;;;;;;18.50;37.80;;;;;;4327114;33;20442;-38
2021/08/29 00:54:03;;;;;;;;;;;18.50;37.60;;;;;;4315221;33;20406;-38
2021/08/29 00:56:29;;;;;;;;;;;18.50;37.50;;;;;;4327001;33;20439;-38
2021/08/29 00:58:55;;;;;;;;;;;18.60;37.50;;;;;;4327734;33;20072;-38
2021/08/29 01:01:42;;;;;;;;;;;18.60;37.50;;;;;;4315428;33;19966;-38
2021/08/29 01:04:12;;;;;;;;;;;18.60;37.50;;;;;;4315082;33;20038;-38
2021/08/29 01:07:08;;;;;;;;;;;18.60;37.40;;;;;;4327137;33;20061;-38
2021/08/29 01:09:36;;;;;;;;;;;18.60;37.30;;;;;;4254852;33;20010;-37
2021/08/29 01:12:02;;;;;;;;;;;18.60;37.30;;;;;;4243303;33;20075;-37
2021/08/29 01:14:28;;;;;;;;;;;18.70;37.30;;;;;;4254808;33;20468;-37
2021/08/29 01:16:56;;;;;;;;;;;18.70;37.20;;;;;;4251098;33;20166;-37
2021/08/29 01:19:46;;;;;;;;;;;18.70;37.10;;;;;;4297798;33;19970;-38
2021/08/29 01:22:12;;;;;;;;;;;18.80;37.00;;;;;;4297476;33;20531;-38
2021/08/29 01:24:39;;;;;;;;;;;18.80;36.90;;;;;;4285801;33;20395;-38
2021/08/29 01:27:13;;;;;;;;;;;18.80;36.80;;;;;;4285773;33;19960;-38
2021/08/29 01:29:39;;;;;;;;;;;18.80;36.70;;;;;;4297347;33;20478;-43
2021/08/29 01:32:06;;;;;;;;;;;18.80;36.70;;;;;;4277570;33;20057;-38
2021/08/29 01:34:32;;;;;;;;;;;18.80;36.80;;;;;;4297726;33;19986;-38
2021/08/29 01:36:58;;;;;;;;;;;18.70;37.00;;;;;;4297613;33;19986;-38
2021/08/29 01:39:24;;;;;;;;;;;18.60;37.20;;;;;;4297476;33;20400;-38
2021/08/29 01:41:51;;;;;;;;;;;18.50;37.50;;;;;;4297850;33;19975;-38
2021/08/29 01:44:18;;;;;;;;;;;18.40;37.80;;;;;;4297762;33;19978;-38
2021/08/29 01:46:44;;;;;;;;;;;18.30;38.00;;;;;;4346508;32;19950;-38
2021/08/29 01:49:11;;;;;;;;;;;18.20;38.10;;;;;;4357077;32;19976;-38
2021/08/29 01:51:38;;;;;;;;;;;18.10;38.30;;;;;;4358865;32;19954;-38
2021/08/29 01:54:04;;;;;;;;;;;18.00;38.50;;;;;;4359020;32;20534;-39
2021/08/29 01:56:30;;;;;;;;;;;17.90;38.50;;;;;;4359265;32;19958;-38
2021/08/29 01:58:56;;;;;;;;;;;17.90;38.70;;;;;;4358615;32;20015;-38
2021/08/29 02:01:22;;;;;;;;;;;17.80;38.80;;;;;;4358899;32;20017;-38
2021/08/29 02:03:48;;;;;;;;;;;17.80;39.10;;;;;;4359009;32;19962;-38
2021/08/29 02:06:32;;;;;;;;;;;17.70;39.30;;;;;;4344722;32;19966;-38
2021/08/29 02:09:04;;;;;;;;;;;17.70;39.40;;;;;;4358633;32;19962;-39
2021/08/29 02:11:34;;;;;;;;;;;17.60;39.40;;;;;;4344347;32;20472;-39
2021/08/29 02:14:01;;;;;;;;;;;17.60;39.50;;;;;;4358935;32;19958;-39
2021/08/29 02:16:28;;;;;;;;;;;17.70;39.50;;;;;;4357013;32;19961;-38
2021/08/29 02:18:55;;;;;;;;;;;17.70;39.40;;;;;;4356705;32;20438;-38
2021/08/29 02:21:25;;;;;;;;;;;17.70;39.60;;;;;;4358336;32;19984;-38
2021/08/29 02:23:51;;;;;;;;;;;17.80;39.70;;;;;;4358725;32;19964;-38
2021/08/29 02:26:17;;;;;;;;;;;17.80;39.70;;;;;;4344406;32;20029;-37
2021/08/29 02:28:43;;;;;;;;;;;17.80;39.70;;;;;;4344289;32;20370;-38
2021/08/29 02:31:09;;;;;;;;;;;17.90;39.80;;;;;;4358250;32;20057;-38
2021/08/29 02:33:36;;;;;;;;;;;18.00;39.70;;;;;;4358123;32;19960;-38
2021/08/29 02:36:02;;;;;;;;;;;18.10;39.50;;;;;;4344604;32;19973;-38
2021/08/29 02:38:28;;;;;;;;;;;18.20;39.40;;;;;;4332180;32;20395;-39
2021/08/29 02:40:55;;;;;;;;;;;18.20;39.20;;;;;;4358596;32;19988;-38
2021/08/29 02:43:22;;;;;;;;;;;18.30;39.10;;;;;;4344567;32;19954;-38
2021/08/29 02:45:48;;;;;;;;;;;18.30;39.10;;;;;;4344348;32;19962;-38
2021/08/29 02:48:15;;;;;;;;;;;18.30;39.00;;;;;;4332092;32;19969;-38
2021/08/29 02:50:42;;;;;;;;;;;18.40;38.90;;;;;;4358083;32;20121;-38
2021/08/29 02:53:20;;;;;;;;;;;18.50;38.80;;;;;;4334886;32;19949;-37
2021/08/29 02:55:47;;;;;;;;;;;18.60;38.50;;;;;;4344523;32;19957;-38
2021/08/29 02:58:13;;;;;;;;;;;18.70;38.40;;;;;;4358377;32;19958;-38
2021/08/29 03:00:39;;;;;;;;;;;18.80;38.20;;;;;;4357950;32;19958;-38
2021/08/29 03:03:05;;;;;;;;;;;18.90;38.00;;;;;;4358270;32;19997;-39
2021/08/29 03:05:32;;;;;;;;;;;19.00;37.80;;;;;;4344422;32;20039;-38
2021/08/29 03:07:58;;;;;;;;;;;19.20;37.50;;;;;;4357934;32;20033;-38
2021/08/29 03:10:24;;;;;;;;;;;19.30;37.20;;;;;;4358056;32;20036;-39
2021/08/29 03:12:51;;;;;;;;;;;19.50;36.90;;;;;;4344305;32;19993;-38
2021/08/29 03:15:17;;;;;;;;;;;19.60;36.60;;;;;;4358076;32;20073;-40
2021/08/29 03:17:43;;;;;;;;;;;19.80;36.40;;;;;;4334738;32;19950;-38
2021/08/29 03:20:10;;;;;;;;;;;19.90;36.00;;;;;;4315836;33;19994;-38
2021/08/29 03:22:37;;;;;;;;;;;20.00;35.80;;;;;;4329008;33;19971;-38
2021/08/29 03:25:05;;;;;;;;;;;20.10;35.60;;;;;;4328924;33;19962;-37
2021/08/29 03:27:31;;;;;;;;;;;20.20;35.40;;;;;;4328966;33;20093;-38
2021/08/29 03:29:58;;;;;;;;;;;20.40;35.30;;;;;;4328475;33;20018;-39
2021/08/29 03:32:24;;;;;;;;;;;20.50;35.10;;;;;;4340535;33;20422;-38
2021/08/29 03:34:51;;;;;;;;;;;20.60;34.80;;;;;;4343024;33;20501;-38
2021/08/29 03:37:18;;;;;;;;;;;20.80;34.60;;;;;;4343337;33;20450;-38
2021/08/29 03:39:44;;;;;;;;;;;21.00;34.30;;;;;;4343352;33;19969;-39
2021/08/29 03:42:11;;;;;;;;;;;21.20;33.90;;;;;;4342980;33;19966;-39
2021/08/29 03:44:37;;;;;;;;;;;21.30;33.60;;;;;;4318763;33;19966;-38
2021/08/29 03:47:04;;;;;;;;;;;21.50;33.30;;;;;;4342815;33;20497;-38
2021/08/29 03:49:30;;;;;;;;;;;21.70;33.10;;;;;;4343244;33;20443;-38
2021/08/29 03:51:57;;;;;;;;;;;21.80;32.70;;;;;;4343786;32;20392;-38
2021/08/29 03:54:23;;;;;;;;;;;22.10;32.50;;;;;;4359970;32;20460;-37
2021/08/29 03:56:49;;;;;;;;;;;22.20;32.00;;;;;;4360280;32;19981;-37
2021/08/29 03:59:15;;;;;;;;;;;22.30;31.70;;;;;;4360106;32;19962;-36
2021/08/29 04:01:42;;;;;;;;;;;22.50;31.60;;;;;;4360517;32;19997;-38
2021/08/29 04:04:08;;;;;;;;;;;22.70;31.10;;;;;;4360495;32;19968;-37
2021/08/29 04:06:34;;;;;;;;;;;22.80;30.90;;;;;;4360272;32;19984;-37
2021/08/29 04:09:05;;;;;;;;;;;23.00;30.70;;;;;;4334020;32;19969;-37
2021/08/29 04:11:31;;;;;;;;;;;23.20;30.40;;;;;;4359935;32;20065;-37
2021/08/29 04:13:58;;;;;;;;;;;23.40;30.10;;;;;;4360096;32;19973;-38
2021/08/29 04:16:24;;;;;;;;;;;23.60;29.90;;;;;;4360056;32;19973;-38
2021/08/29 04:18:50;;;;;;;;;;;23.80;29.70;;;;;;4360127;32;19985;-37
2021/08/29 04:21:19;;;;;;;;;;;24.00;29.50;;;;;;4359690;32;20387;-37
2021/08/29 04:23:45;;;;;;;;;;;24.20;29.30;;;;;;4359950;32;19962;-38
2021/08/29 04:26:11;;;;;;;;;;;24.50;28.90;;;;;;4360109;32;19978;-39
2021/08/29 04:28:38;;;;;;;;;;;24.70;28.50;;;;;;4345817;32;19970;-38
2021/08/29 04:31:11;;;;;;;;;;;24.80;28.30;;;;;;4349957;32;19953;-37
2021/08/29 04:33:38;;;;;;;;;;;24.90;28.20;;;;;;4375001;32;19954;-37
2021/08/29 04:36:07;;;;;;;;;;;25.00;28.20;;;;;;4374350;32;19977;-38
2021/08/29 04:38:34;;;;;;;;;;;25.20;28.60;;;;;;4360984;32;19964;-37
2021/08/29 04:41:01;;;;;;;;;;;25.40;28.20;;;;;;4360911;32;19969;-37
2021/08/29 04:43:27;;;;;;;;;;;25.70;27.80;;;;;;4374267;32;20368;-38
2021/08/29 04:45:53;;;;;;;;;;;25.80;27.70;;;;;;4374490;32;19950;-37
2021/08/29 04:48:19;;;;;;;;;;;26.00;27.50;;;;;;4374590;32;20161;-37
2021/08/29 04:50:46;;;;;;;;;;;26.10;27.40;;;;;;4374041;32;20435;-38
2021/08/29 04:53:12;;;;;;;;;;;26.30;27.40;;;;;;4374739;32;20037;-38
2021/08/29 04:55:38;;;;;;;;;;;26.50;27.20;;;;;;4374567;32;20033;-39
2021/08/29 04:58:04;;;;;;;;;;;26.60;26.90;;;;;;4374298;32;19961;-39
2021/08/29 05:00:30;;;;;;;;;;;26.80;26.70;;;;;;4374469;32;20461;-39
2021/08/29 05:02:56;;;;;;;;;;;26.90;26.50;;;;;;4360360;32;19996;-37
2021/08/29 05:05:23;;;;;;;;;;;27.10;26.40;;;;;;4374062;32;19957;-38
2021/08/29 05:07:49;;;;;;;;;;;27.10;26.30;;;;;;4374136;32;20379;-39
2021/08/29 05:10:15;;;;;;;;;;;27.20;26.30;;;;;;4373819;32;19962;-39
2021/08/29 05:12:41;;;;;;;;;;;27.30;26.80;;;;;;4374037;32;20369;-38
2021/08/29 05:15:08;;;;;;;;;;;27.50;26.20;;;;;;4374217;32;19953;-39
2021/08/29 05:17:34;;;;;;;;;;;27.60;26.10;;;;;;4374048;32;19977;-38
2021/08/29 05:20:00;;;;;;;;;;;27.70;26.10;;;;;;4359734;32;20105;-39
2021/08/29 05:22:27;;;;;;;;;;;27.70;25.80;;;;;;4373890;32;19996;-38
2021/08/29 05:24:53;;;;;;;;;;;27.80;25.70;;;;;;4373709;32;19962;-38
2021/08/29 05:27:19;;;;;;;;;;;27.90;25.70;;;;;;4373725;32;19981;-38
2021/08/29 05:29:45;;;;;;;;;;;28.00;25.60;;;;;;4373950;32;19976;-39
2021/08/29 05:32:11;;;;;;;;;;;28.00;25.50;;;;;;4362647;32;19961;-40
2021/08/29 05:34:38;;;;;;;;;;;28.10;25.40;;;;;;4359006;32;19995;-40
2021/08/29 05:37:04;;;;;;;;;;;28.10;25.40;;;;;;4358659;32;19973;-39
2021/08/29 05:39:30;;;;;;;;;;;28.20;25.50;;;;;;4357952;32;19988;-39
2021/08/29 05:41:56;;;;;;;;;;;28.40;25.50;;;;;;4358291;32;20475;-39
2021/08/29 05:44:22;;;;;;;;;;;28.50;25.40;;;;;;4358421;32;19996;-39
2021/08/29 05:46:48;;;;;;;;;;;28.60;25.50;;;;;;4358732;32;20370;-40
2021/08/29 05:49:15;;;;;;;;;;;28.70;25.40;;;;;;4358673;32;19966;-39
2021/08/29 05:51:41;;;;;;;;;;;28.90;25.30;;;;;;4358709;32;19966;-40
2021/08/29 05:54:07;;;;;;;;;;;29.00;24.90;;;;;;4358903;32;19965;-39
2021/08/29 05:56:33;;;;;;;;;;;29.00;24.80;;;;;;4358698;32;20055;-40
2021/08/29 05:58:59;;;;;;;;;;;29.10;24.90;;;;;;4358947;32;19962;-39
2021/08/29 06:01:25;;;;;;;;;;;29.10;24.90;;;;;;4358544;32;19961;-39
2021/08/29 06:03:52;;;;;;;;;;;29.20;24.60;;;;;;4358748;32;19954;-40
2021/08/29 06:06:18;;;;;;;;;;;29.10;24.60;;;;;;4358706;32;19961;-38
2021/08/29 06:08:44;;;;;;;;;;;29.10;24.70;;;;;;4358393;32;19950;-38
2021/08/29 06:11:10;;;;;;;;;;;29.20;24.60;;;;;;4358541;32;19975;-38
2021/08/29 06:13:36;;;;;;;;;;;29.20;24.60;;;;;;4358292;32;20001;-38
2021/08/29 06:16:03;;;;;;;;;;;29.20;24.70;;;;;;4358410;32;20406;-39
2021/08/29 06:18:29;;;;;;;;;;;29.20;24.60;;;;;;4344575;32;19989;-39
2021/08/29 06:20:55;;;;;;;;;;;29.20;24.70;;;;;;4358454;32;20038;-38
2021/08/29 06:23:21;;;;;;;;;;;29.20;24.60;;;;;;4358307;32;19969;-39
2021/08/29 06:25:48;;;;;;;;;;;29.20;24.50;;;;;;4325912;33;19959;-40
2021/08/29 06:28:14;;;;;;;;;;;29.30;24.60;;;;;;4326504;33;19969;-39
2021/08/29 06:30:40;;;;;;;;;;;29.50;24.80;;;;;;4327651;33;20008;-39
2021/08/29 06:33:06;;;;;;;;;;;29.60;24.70;;;;;;4341018;33;19962;-39
2021/08/29 06:35:32;;;;;;;;;;;29.70;24.10;;;;;;4328680;33;19973;-38
2021/08/29 06:37:58;;;;;;;;;;;29.80;24.10;;;;;;4341088;33;19961;-39
2021/08/29 06:40:25;;;;;;;;;;;29.90;24.30;;;;;;4296573;33;20515;-38
2021/08/29 06:42:51;;;;;;;;;;;30.00;24.20;;;;;;4296997;33;20073;-38
2021/08/29 06:45:17;;;;;;;;;;;30.00;24.30;;;;;;4296819;33;20393;-39
2021/08/29 06:47:43;;;;;;;;;;;30.10;24.20;;;;;;4297327;33;20486;-38
2021/08/29 06:50:10;;;;;;;;;;;30.20;24.00;;;;;;4296898;33;20062;-39
2021/08/29 06:52:36;;;;;;;;;;;30.30;24.00;;;;;;4300201;33;19987;-38
2021/08/29 06:55:02;;;;;;;;;;;30.40;23.80;;;;;;4299660;33;20424;-39
2021/08/29 06:57:29;;;;;;;;;;;30.60;23.90;;;;;;4310115;33;19958;-39
2021/08/29 06:59:55;;;;;;;;;;;30.70;23.80;;;;;;4329113;33;19961;-37
2021/08/29 07:02:22;;;;;;;;;;;30.80;23.30;;;;;;4328698;33;19951;-39
2021/08/29 07:04:48;;;;;;;;;;;30.90;23.10;;;;;;4329249;33;19981;-38
2021/08/29 07:07:14;;;;;;;;;;;31.00;23.00;;;;;;4328803;33;20074;-39
2021/08/29 07:09:41;;;;;;;;;;;31.10;22.70;;;;;;4328884;33;20014;-38
2021/08/29 07:12:11;;;;;;;;;;;31.10;22.40;;;;;;4328858;33;19957;-38
2021/08/29 07:14:37;;;;;;;;;;;31.20;22.50;;;;;;4328930;33;19981;-38
2021/08/29 07:17:03;;;;;;;;;;;31.20;22.50;;;;;;4336304;32;19950;-38
2021/08/29 07:19:29;;;;;;;;;;;31.20;22.50;;;;;;4375509;32;20359;-38
2021/08/29 07:21:56;;;;;;;;;;;31.30;22.60;;;;;;4375527;32;20363;-38
2021/08/29 07:24:22;;;;;;;;;;;31.30;22.40;;;;;;4375433;32;19961;-38
2021/08/29 07:26:48;;;;;;;;;;;31.30;22.30;;;;;;4375941;32;19956;-39
2021/08/29 07:29:14;;;;;;;;;;;31.40;22.30;;;;;;4375590;32;20367;-38
2021/08/29 07:31:40;;;;;;;;;;;31.50;22.20;;;;;;4367389;32;19950;-39
2021/08/29 07:34:07;;;;;;;;;;;31.50;22.10;;;;;;4360296;32;19966;-39
2021/08/29 07:36:33;;;;;;;;;;;31.50;22.00;;;;;;4360708;32;19950;-38
2021/08/29 07:38:59;;;;;;;;;;;31.70;22.10;;;;;;4360505;32;20034;-39
2021/08/29 07:41:25;;;;;;;;;;;31.80;22.10;;;;;;4347122;32;19963;-37
2021/08/29 07:43:51;;;;;;;;;;;31.80;22.00;;;;;;4360538;32;20073;-38
2021/08/29 07:46:18;;;;;;;;;;;31.80;21.90;;;;;;4360830;32;19953;-38
2021/08/29 07:48:44;;;;;;;;;;;31.80;22.00;;;;;;4346450;32;19962;-39
2021/08/29 07:51:10;;;;;;;;;;;31.80;21.90;;;;;;4360124;32;19977;-39
2021/08/29 07:53:36;;;;;;;;;;;31.80;21.80;;;;;;4360493;32;19960;-38
2021/08/29 07:56:03;;;;;;;;;;;31.80;21.60;;;;;;4360195;32;19979;-39
2021/08/29 07:58:29;;;;;;;;;;;31.90;21.70;;;;;;4360350;32;19957;-39
2021/08/29 08:00:55;;;;;;;;;;;32.00;21.60;;;;;;4360229;32;19957;-38
2021/08/29 08:03:21;;;;;;;;;;;32.00;21.40;;;;;;4359833;32;19965;-39
2021/08/29 08:05:47;;;;;;;;;;;32.00;21.20;;;;;;4360073;32;19950;-38
2021/08/29 08:08:14;;;;;;;;;;;32.00;21.00;;;;;;4359815;32;20009;-38
2021/08/29 08:10:40;;;;;;;;;;;32.00;21.10;;;;;;4359794;32;19954;-39
2021/08/29 08:13:06;;;;;;;;;;;32.10;21.10;;;;;;4360018;32;20470;-38
2021/08/29 08:15:32;;;;;;;;;;;32.20;21.20;;;;;;4360011;32;20081;-37
2021/08/29 08:17:58;;;;;;;;;;;32.10;21.00;;;;;;4359499;32;20130;-39
2021/08/29 08:20:25;;;;;;;;;;;32.20;21.10;;;;;;4359877;32;19952;-39
2021/08/29 08:22:51;;;;;;;;;;;32.30;21.30;;;;;;4360046;32;19972;-38
2021/08/29 08:25:17;;;;;;;;;;;32.50;21.20;;;;;;4360025;32;20406;-38
2021/08/29 08:27:43;;;;;;;;;;;32.40;20.90;;;;;;4360060;32;20062;-38
2021/08/29 08:30:10;;;;;;;;;;;32.40;20.70;;;;;;4359455;32;20381;-38
2021/08/29 08:32:36;;;;;;;;;;;32.60;20.80;;;;;;4359546;32;19957;-39
2021/08/29 08:35:03;;;;;;;;;;;32.60;20.80;;;;;;4359610;32;19958;-38
2021/08/29 08:37:29;;;;;;;;;;;32.50;21.00;;;;;;4345888;32;19969;-38
2021/08/29 08:39:55;;;;;;;;;;;32.60;21.10;;;;;;4359485;32;19977;-39
2021/08/29 08:42:22;;;;;;;;;;;32.60;21.30;;;;;;4359864;32;20073;-40
2021/08/29 08:44:48;;;;;;;;;;;32.60;21.10;;;;;;4359820;32;19968;-39
2021/08/29 08:47:19;;;;;;;;;;;32.50;20.90;;;;;;4359615;32;19965;-38
2021/08/29 08:49:45;;;;;;;;;;;32.40;20.70;;;;;;4359572;32;19961;-38
2021/08/29 08:52:18;;;;;;;;;;;32.40;20.80;;;;;;4359473;32;19969;-38
2021/08/29 08:54:46;;;;;;;;;;;32.50;20.70;;;;;;4358081;32;19961;-38
2021/08/29 08:57:16;;;;;;;;;;;32.50;20.80;;;;;;4359124;32;19965;-37
2021/08/29 08:59:46;;;;;;;;;;;32.60;20.80;;;;;;4357454;32;20347;-37
2021/08/29 09:02:13;;;;;;;;;;;32.50;20.80;;;;;;4359283;32;19953;-38
2021/08/29 09:04:40;;;;;;;;;;;32.50;20.70;;;;;;4359513;32;19969;-38
2021/08/29 09:07:07;;;;;;;;;;;32.50;20.70;;;;;;4359172;32;19954;-38
2021/08/29 09:09:34;;;;;;;;;;;32.50;20.80;;;;;;4359088;32;19968;-38
2021/08/29 09:12:00;;;;;;;;;;;32.50;20.80;;;;;;4357516;32;19958;-39
2021/08/29 09:14:39;;;;;;;;;;;32.30;20.70;;;;;;4359492;32;19954;-38
2021/08/29 09:17:24;;;;;;;;;;;32.40;20.80;;;;;;4357645;32;19969;-38
2021/08/29 09:19:50;;;;;;;;;;;32.40;20.50;;;;;;4359580;32;19958;-38
2021/08/29 09:22:26;;;;;;;;;;;32.50;20.50;;;;;;4374153;32;19962;-39
2021/08/29 09:24:53;;;;;;;;;;;32.60;20.50;;;;;;4374176;32;19958;-38
2021/08/29 09:27:23;;;;;;;;;;;32.60;20.30;;;;;;4373883;32;20406;-39
2021/08/29 09:29:50;;;;;;;;;;;32.80;20.50;;;;;;4373899;32;19961;-38
2021/08/29 09:32:20;;;;;;;;;;;32.70;20.00;;;;;;4362164;32;20366;-39
2021/08/29 09:34:57;;;;;;;;;;;32.80;19.90;;;;;;4358553;32;19964;-39
2021/08/29 09:37:23;;;;;;;;;;;32.90;20.10;;;;;;4344576;32;20061;-39
2021/08/29 09:39:49;;;;;;;;;;;32.90;20.00;;;;;;4358666;32;20006;-38
2021/08/29 09:42:15;;;;;;;;;;;33.00;20.10;;;;;;4358760;32;19950;-38
2021/08/29 09:44:41;;;;;;;;;;;33.10;20.10;;;;;;4358485;32;19980;-39
2021/08/29 09:47:10;;;;;;;;;;;33.10;20.00;;;;;;4358913;32;20053;-38
2021/08/29 09:49:37;;;;;;;;;;;33.20;20.00;;;;;;4344819;32;19966;-38
2021/08/29 09:52:05;;;;;;;;;;;33.20;20.10;;;;;;4344775;32;20413;-38
2021/08/29 09:54:41;;;;;;;;;;;33.30;20.00;;;;;;4344898;32;20715;-38
2021/08/29 09:57:11;;;;;;;;;;;33.30;19.90;;;;;;4358168;32;20366;-39
2021/08/29 09:59:42;;;;;;;;;;;33.40;20.00;;;;;;4358242;32;20110;-38
2021/08/29 10:02:12;;;;;;;;;;;33.40;19.90;;;;;;4358356;32;20510;-39
2021/08/29 10:04:39;;;;;;;;;;;33.50;20.00;;;;;;4358677;32;19950;-39
2021/08/29 10:07:16;;;;;;;;;;;33.50;19.80;;;;;;4358238;32;19976;-38
2021/08/29 10:09:43;;;;;;;;;;;33.50;19.90;;;;;;4358556;32;19961;-39
2021/08/29 10:12:09;;;;;;;;;;;33.50;19.90;;;;;;4358307;32;20034;-39
2021/08/29 10:14:36;;;;;;;;;;;33.60;19.80;;;;;;4358123;32;20394;-38
2021/08/29 10:17:03;;;;;;;;;;;33.70;19.50;;;;;;4358631;32;20373;-38
2021/08/29 10:19:29;;;;;;;;;;;33.80;19.60;;;;;;4358872;32;19957;-39
2021/08/29 10:21:56;;;;;;;;;;;33.80;19.80;;;;;;4326010;33;20056;-39
2021/08/29 10:24:22;;;;;;;;;;;33.80;19.80;;;;;;4326298;33;19990;-38
2021/08/29 10:26:53;;;;;;;;;;;33.70;19.70;;;;;;4325987;33;19963;-39
2021/08/29 10:29:21;;;;;;;;;;;33.90;19.70;;;;;;4326131;33;19985;-38
2021/08/29 10:32:02;;;;;;;;;;;33.90;20.00;;;;;;4334531;33;20056;-39
2021/08/29 10:34:28;;;;;;;;;;;34.00;20.20;;;;;;4341412;33;19982;-38
2021/08/29 10:36:56;;;;;;;;;;;34.00;20.30;;;;;;4316176;33;19970;-39
2021/08/29 10:39:22;;;;;;;;;;;33.90;20.00;;;;;;4329068;33;20005;-39
2021/08/29 10:41:49;;;;;;;;;;;34.00;19.70;;;;;;4340865;33;19970;-38
2021/08/29 10:44:15;;;;;;;;;;;34.20;19.70;;;;;;4328439;33;20039;-38
2021/08/29 10:46:45;;;;;;;;;;;34.20;19.80;;;;;;4316205;33;19974;-38
2021/08/29 10:49:12;;;;;;;;;;;34.10;20.10;;;;;;4328477;33;20124;-38
2021/08/29 10:51:38;;;;;;;;;;;34.00;20.10;;;;;;4328776;33;20038;-38
2021/08/29 10:54:13;;;;;;;;;;;34.00;20.20;;;;;;4357501;32;19962;-38
2021/08/29 10:56:41;;;;;;;;;;;34.10;20.30;;;;;;4356437;32;19976;-38
2021/08/29 10:59:07;;;;;;;;;;;34.00;20.10;;;;;;4358167;32;20460;-39
2021/08/29 11:01:34;;;;;;;;;;;33.80;19.90;;;;;;4357902;32;20327;-37
2021/08/29 11:04:26;;;;;;;;;;;33.70;20.10;;;;;;4358133;32;20363;-39
2021/08/29 11:06:59;;;;;;;;;;;33.80;20.20;;;;;;4353621;32;19961;-38
2021/08/29 11:09:34;;;;;;;;;;;33.70;19.90;;;;;;4358205;32;20053;-39
2021/08/29 11:12:05;;;;;;;;;;;33.80;19.80;;;;;;4358151;32;20443;-38
2021/08/29 11:14:47;;;;;;;;;;;33.90;19.90;;;;;;4356958;32;20021;-38
2021/08/29 11:17:14;;;;;;;;;;;33.80;19.80;;;;;;4358176;32;19972;-38
2021/08/29 11:19:42;;;;;;;;;;;33.70;20.10;;;;;;4357808;32;20047;-39
2021/08/29 11:22:08;;;;;;;;;;;33.80;20.00;;;;;;4357574;32;19965;-39
2021/08/29 11:24:52;;;;;;;;;;;33.90;20.10;;;;;;4357921;32;20345;-39
2021/08/29 11:30:35;;;;;;;;;;;34.10;19.90;;;;;;4357671;32;19970;-39
2021/08/29 11:33:03;;;;;;;;;;;34.00;19.60;;;;;;4350847;32;19960;-38
2021/08/29 11:35:42;;;;;;;;;;;34.00;19.60;;;;;;4357602;32;19950;-39
2021/08/29 11:38:10;;;;;;;;;;;34.10;19.50;;;;;;4358621;32;20331;-38
2021/08/29 11:41:05;;;;;;;;;;;34.00;19.50;;;;;;4360188;32;19961;-40
2021/08/29 11:43:36;;;;;;;;;;;33.90;19.50;;;;;;4360584;32;19950;-38
2021/08/29 11:46:10;;;;;;;;;;;34.00;19.70;;;;;;4360743;32;19992;-38
2021/08/29 11:48:37;;;;;;;;;;;33.80;19.70;;;;;;4360499;32;20068;-37
2021/08/29 11:51:04;;;;;;;;;;;33.70;19.60;;;;;;4360102;32;20044;-38
2021/08/29 11:53:51;;;;;;;;;;;33.80;19.60;;;;;;4360343;32;20402;-39
2021/08/29 11:56:20;;;;;;;;;;;33.90;19.70;;;;;;4360399;32;20018;-38
2021/08/29 11:58:47;;;;;;;;;;;33.80;19.50;;;;;;4360623;32;19961;-39
2021/08/29 12:01:15;;;;;;;;;;;33.80;19.60;;;;;;4360687;32;20048;-37
2021/08/29 12:03:41;;;;;;;;;;;33.80;19.50;;;;;;4360315;32;19966;-39
2021/08/29 12:06:36;;;;;;;;;;;33.80;19.70;;;;;;4346237;32;19961;-39
2021/08/29 12:09:26;;;;;;;;;;;33.70;19.70;;;;;;4359861;32;20142;-39
2021/08/29 12:11:52;;;;;;;;;;;33.70;19.90;;;;;;4360113;32;20390;-38
2021/08/29 12:14:20;;;;;;;;;;;33.60;19.90;;;;;;4359989;32;19962;-39
2021/08/29 12:16:51;;;;;;;;;;;33.50;19.90;;;;;;4346188;32;19968;-39
2021/08/29 12:19:19;;;;;;;;;;;33.50;19.90;;;;;;4346317;32;19969;-39
2021/08/29 12:21:46;;;;;;;;;;;33.50;20.00;;;;;;4345536;32;20332;-38
2021/08/29 12:24:13;;;;;;;;;;;33.40;19.90;;;;;;4346060;32;19950;-38
2021/08/29 12:26:39;;;;;;;;;;;33.40;19.80;;;;;;4359777;32;19965;-40
2021/08/29 12:29:06;;;;;;;;;;;33.40;19.90;;;;;;4360079;32;19957;-39
2021/08/29 12:31:39;;;;;;;;;;;33.40;19.90;;;;;;4359679;32;19996;-39
2021/08/29 12:34:06;;;;;;;;;;;33.40;19.80;;;;;;4359948;32;19973;-38
2021/08/29 12:36:33;;;;;;;;;;;33.40;19.70;;;;;;4359411;32;20009;-39
2021/08/29 12:39:00;;;;;;;;;;;33.30;19.80;;;;;;4357882;32;19969;-38
2021/08/29 12:41:27;;;;;;;;;;;33.10;19.90;;;;;;4359634;32;20048;-38
2021/08/29 12:44:03;;;;;;;;;;;33.10;20.00;;;;;;4359511;32;19973;-38
2021/08/29 12:46:30;;;;;;;;;;;33.10;20.10;;;;;;4359732;32;20077;-38
2021/08/29 12:48:56;;;;;;;;;;;33.10;20.10;;;;;;4359182;32;19969;-38
2021/08/29 12:51:24;;;;;;;;;;;33.00;20.10;;;;;;4359041;32;20076;-38
2021/08/29 12:53:50;;;;;;;;;;;32.90;20.10;;;;;;4357944;32;20123;-38
2021/08/29 12:56:21;;;;;;;;;;;32.90;20.10;;;;;;4359573;32;19954;-39
2021/08/29 12:58:47;;;;;;;;;;;32.80;20.10;;;;;;4359487;32;20029;-39
2021/08/29 13:01:14;;;;;;;;;;;32.80;20.20;;;;;;4359363;32;20389;-39
2021/08/29 13:03:51;;;;;;;;;;;32.80;20.20;;;;;;4370332;32;19957;-39
2021/08/29 13:06:19;;;;;;;;;;;32.80;20.10;;;;;;4359506;32;20048;-38
2021/08/29 13:08:47;;;;;;;;;;;32.70;20.10;;;;;;4359366;32;20036;-38
2021/08/29 13:11:16;;;;;;;;;;;32.70;20.10;;;;;;4358690;32;20447;-38
2021/08/29 13:13:46;;;;;;;;;;;32.60;20.20;;;;;;4359237;32;20171;-38
2021/08/29 13:16:13;;;;;;;;;;;32.50;20.30;;;;;;4369995;32;19974;-38
2021/08/29 13:18:43;;;;;;;;;;;32.40;20.30;;;;;;4359093;32;20413;-38
2021/08/29 13:21:25;;;;;;;;;;;32.40;20.40;;;;;;4366282;32;19958;-39
2021/08/29 13:23:52;;;;;;;;;;;32.40;20.20;;;;;;4373946;32;19949;-39
2021/08/29 13:26:19;;;;;;;;;;;32.40;20.20;;;;;;4374388;32;19993;-38
2021/08/29 13:29:03;;;;;;;;;;;32.30;20.20;;;;;;4373902;32;20045;-38
2021/08/29 13:31:34;;;;;;;;;;;32.20;20.30;;;;;;4373919;32;20046;-38
2021/08/29 13:34:09;;;;;;;;;;;32.20;20.50;;;;;;4360184;32;19957;-37
2021/08/29 13:36:43;;;;;;;;;;;32.20;20.50;;;;;;4373581;32;20060;-38
2021/08/29 13:39:14;;;;;;;;;;;32.10;20.40;;;;;;4360591;32;19954;-38
2021/08/29 13:41:41;;;;;;;;;;;32.00;20.50;;;;;;4373772;32;19976;-39
2021/08/29 13:44:12;;;;;;;;;;;31.90;20.50;;;;;;4373878;32;19961;-39
2021/08/29 13:46:38;;;;;;;;;;;31.80;20.50;;;;;;4374082;32;19961;-38
2021/08/29 13:49:04;;;;;;;;;;;31.70;20.50;;;;;;4359379;32;20431;-38
2021/08/29 13:51:30;;;;;;;;;;;31.70;20.60;;;;;;4373485;32;19968;-38
2021/08/29 13:53:57;;;;;;;;;;;31.60;20.60;;;;;;4373524;32;19989;-39
2021/08/29 13:56:23;;;;;;;;;;;31.50;20.60;;;;;;4373419;32;20109;-39
2021/08/29 13:58:50;;;;;;;;;;;31.40;20.60;;;;;;4347236;32;20369;-39
2021/08/29 14:01:16;;;;;;;;;;;31.40;20.60;;;;;;4372774;32;19958;-40
2021/08/29 14:03:42;;;;;;;;;;;31.40;20.80;;;;;;4373264;32;20062;-39
2021/08/29 14:06:09;;;;;;;;;;;31.30;20.80;;;;;;4373724;32;19965;-39
2021/08/29 14:08:36;;;;;;;;;;;31.20;20.90;;;;;;4359290;32;20342;-39
2021/08/29 14:11:05;;;;;;;;;;;31.10;20.80;;;;;;4373209;32;19971;-39
2021/08/29 14:13:32;;;;;;;;;;;31.00;20.80;;;;;;4373083;32;19979;-38
2021/08/29 14:15:58;;;;;;;;;;;30.80;20.80;;;;;;4373299;32;19969;-39
2021/08/29 14:18:25;;;;;;;;;;;30.80;21.00;;;;;;4373191;32;19972;-39
2021/08/29 14:20:51;;;;;;;;;;;30.70;21.10;;;;;;4372963;32;19953;-39
2021/08/29 14:23:17;;;;;;;;;;;30.60;21.30;;;;;;4359649;32;19959;-39